Time;durP1;ratioP1;P1;durP2;ratioP2;P2;SDS_P1;SDS_P2;PMS_P1;PMS_P2;Temp;Humidity;BMP_temperature;BMP_pressure;BME280_temperature;BME280_humidity;BME280_pressure;Samples;Min_cycle;Max_cycle;Signal;HPM_P1;HPM_P2
2022/05/08 00:00:27;;;;;;;3.17;1.75;;;;;;;9.85;55.49;95303.97;5113973;27;20416;-73
2022/05/08 00:02:55;;;;;;;4.57;2.45;;;;;;;9.82;55.09;95298.19;5132311;27;20019;-73
2022/05/08 00:05:21;;;;;;;3.70;2.00;;;;;;;9.78;55.68;95287.22;5131008;27;20034;-73
2022/05/08 00:07:46;;;;;;;3.17;2.00;;;;;;;9.75;55.70;95292.63;5132163;27;20023;-73
2022/05/08 00:10:11;;;;;;;3.28;2.20;;;;;;;9.68;55.62;95288.81;5130852;27;20485;-73
2022/05/08 00:12:37;;;;;;;3.00;1.98;;;;;;;9.66;55.19;95282.06;5113361;28;20096;-73
2022/05/08 00:15:03;;;;;;;3.30;2.03;;;;;;;9.57;55.99;95286.97;5132100;27;20163;-74
2022/05/08 00:17:34;;;;;;;3.58;1.92;;;;;;;9.58;56.09;95291.25;5130800;27;20046;-73
2022/05/08 00:19:59;;;;;;;5.10;2.37;;;;;;;9.56;56.51;95293.09;5130964;27;20103;-73
2022/05/08 00:22:25;;;;;;;5.75;2.15;;;;;;;9.49;55.77;95293.66;5113542;27;20023;-72
2022/05/08 00:24:50;;;;;;;2.97;2.10;;;;;;;9.38;56.33;95291.81;5131943;27;20485;-73
2022/05/08 00:27:15;;;;;;;3.25;2.00;;;;;;;9.24;55.97;95281.56;5130597;27;20031;-72
2022/05/08 00:29:41;;;;;;;4.25;1.92;;;;;;;9.29;55.49;95288.09;5132260;27;20027;-73
2022/05/08 00:32:07;;;;;;;3.53;1.70;;;;;;;9.34;54.74;95290.38;5130598;27;20031;-73
2022/05/08 00:34:33;;;;;;;5.90;2.28;;;;;;;9.29;54.25;95288.09;5113496;27;20027;-73
2022/05/08 00:36:58;;;;;;;3.42;2.17;;;;;;;9.36;54.63;95296.25;5131834;27;20062;-73
2022/05/08 00:39:23;;;;;;;5.88;2.40;;;;;;;9.34;56.24;95295.56;5130674;28;20023;-73
2022/05/08 00:41:49;;;;;;;5.25;2.40;;;;;;;9.33;55.67;95286.97;5132190;27;20046;-73
2022/05/08 00:44:14;;;;;;;5.22;2.60;;;;;;;9.26;56.22;95285.72;5131750;27;20480;-72
2022/05/08 00:46:40;;;;;;;4.40;2.15;;;;;;;9.20;54.76;95295.72;5130324;28;20088;-73
2022/05/08 00:49:06;;;;;;;4.07;2.20;;;;;;;9.09;54.58;95286.06;5113382;28;20024;-73
2022/05/08 00:51:31;;;;;;;5.93;2.45;;;;;;;9.09;54.81;95299.88;5130609;28;20027;-73
2022/05/08 00:53:58;;;;;;;2.95;2.20;;;;;;;8.98;54.90;95279.03;5130461;28;20027;-73
2022/05/08 00:56:23;;;;;;;3.40;2.10;;;;;;;9.12;54.45;95288.47;5113506;28;20050;-72
2022/05/08 00:58:50;;;;;;;3.35;2.10;;;;;;;8.94;54.48;95288.81;5131648;27;20031;-72
2022/05/08 01:01:16;;;;;;;3.22;2.00;;;;;;;9.00;54.07;95292.72;5113590;28;20051;-72
2022/05/08 01:03:41;;;;;;;4.72;2.50;;;;;;;8.99;53.63;95287.63;5130378;28;20130;-73
2022/05/08 01:06:11;;;;;;;5.95;2.15;;;;;;;8.99;53.87;95282.47;5130332;28;20031;-73
2022/05/08 01:08:38;;;;;;;4.50;2.13;;;;;;;9.00;54.33;95289.28;5113271;28;20038;-73
2022/05/08 01:11:05;;;;;;;3.70;2.20;;;;;;;9.04;53.83;95290.75;5113415;28;20127;-73
2022/05/08 01:13:30;;;;;;;3.15;2.08;;;;;;;8.98;53.84;95286.00;5130323;28;20035;-72
2022/05/08 01:15:56;;;;;;;6.85;2.22;;;;;;;9.01;53.79;95276.25;5131579;27;20443;-73
2022/05/08 01:18:21;;;;;;;3.22;2.08;;;;;;;8.97;54.19;95279.13;5113167;28;20110;-73
2022/05/08 01:20:47;;;;;;;3.10;2.20;;;;;;;8.93;53.67;95279.34;5113157;28;20108;-72
2022/05/08 01:23:13;;;;;;;2.70;2.00;;;;;;;8.99;53.79;95285.88;5113078;28;20027;-73
2022/05/08 01:25:49;;;;;;;3.38;2.00;;;;;;;9.02;53.78;95277.88;5114731;27;20031;-72
2022/05/08 01:28:15;;;;;;;3.75;2.10;;;;;;;8.95;53.91;95272.31;5117088;27;20053;-73
2022/05/08 01:30:44;;;;;;;3.30;2.20;;;;;;;8.94;54.28;95283.63;5116953;27;20385;-73
2022/05/08 01:33:10;;;;;;;4.97;2.30;;;;;;;8.84;53.49;95282.59;5133999;27;20027;-73
2022/05/08 01:35:36;;;;;;;4.68;2.10;;;;;;;8.79;53.53;95269.09;5116769;27;20428;-73
2022/05/08 01:38:03;;;;;;;4.15;2.30;;;;;;;8.82;52.94;95274.06;5116867;27;20404;-73
2022/05/08 01:40:30;;;;;;;3.83;2.30;;;;;;;8.69;53.06;95265.47;5135248;27;20113;-73
2022/05/08 01:42:55;;;;;;;3.67;2.22;;;;;;;8.66;52.70;95265.69;5135062;27;20027;-73
2022/05/08 01:45:21;;;;;;;3.75;2.10;;;;;;;8.59;52.96;95272.25;5134974;27;20467;-72
2022/05/08 01:50:30;;;;;;;3.38;2.30;;;;;;;8.45;52.63;95271.41;5119355;27;20066;-73
2022/05/08 01:52:56;;;;;;;3.90;2.10;;;;;;;8.42;52.94;95257.84;5133656;27;20472;-73
2022/05/08 01:55:21;;;;;;;2.60;2.10;;;;;;;8.41;53.30;95264.78;5134654;27;20034;-73
2022/05/08 01:57:47;;;;;;;3.83;2.30;;;;;;;8.45;52.67;95257.63;5134770;27;20076;-73
2022/05/08 02:00:12;;;;;;;3.58;2.00;;;;;;;8.45;52.65;95274.00;5116270;27;20041;-73
2022/05/08 02:02:38;;;;;;;4.32;2.35;;;;;;;8.35;53.06;95272.91;5116409;27;20031;-73
2022/05/08 02:05:04;;;;;;;4.60;2.05;;;;;;;8.32;52.62;95267.94;5133371;27;20035;-73
2022/05/08 02:07:29;;;;;;;4.32;2.22;;;;;;;8.25;52.78;95266.72;5134752;27;20420;-73
2022/05/08 02:09:57;;;;;;;3.67;2.30;;;;;;;8.22;52.80;95269.50;5116304;27;20114;-73
2022/05/08 02:12:23;;;;;;;4.30;2.20;;;;;;;8.18;53.53;95271.44;5133162;27;20058;-73
2022/05/08 02:14:48;;;;;;;5.13;2.30;;;;;;;7.96;53.38;95258.25;5133172;27;20408;-73
2022/05/08 02:17:14;;;;;;;10.43;2.75;;;;;;;7.99;53.28;95276.16;5115879;27;20416;-73
2022/05/08 02:19:39;;;;;;;4.20;2.30;;;;;;;7.97;52.97;95270.28;5116043;27;20106;-72
2022/05/08 02:22:05;;;;;;;4.25;2.10;;;;;;;8.02;52.60;95273.38;5115984;27;20481;-73
2022/05/08 02:24:30;;;;;;;3.78;2.40;;;;;;;7.82;52.42;95269.50;5098867;27;20545;-73
2022/05/08 02:26:56;;;;;;;3.25;2.13;;;;;;;7.79;52.50;95267.94;5115623;27;20028;-73
2022/05/08 02:29:21;;;;;;;5.13;2.25;;;;;;;7.73;52.70;95270.94;5134150;27;20016;-73
2022/05/08 02:31:47;;;;;;;4.57;2.20;;;;;;;7.78;52.44;95270.63;5133024;27;20158;-72
2022/05/08 02:34:12;;;;;;;3.53;1.98;;;;;;;7.73;52.04;95267.50;5098674;27;20023;-73
2022/05/08 02:36:38;;;;;;;4.30;2.10;;;;;;;7.78;52.00;95266.28;5133537;27;20074;-72
2022/05/08 02:39:03;;;;;;;3.25;2.10;;;;;;;7.82;51.85;95259.16;5132729;27;20023;-73
2022/05/08 02:41:28;;;;;;;3.70;1.95;;;;;;;7.86;51.99;95268.38;5132792;27;20027;-73
2022/05/08 02:43:54;;;;;;;3.63;2.00;;;;;;;7.86;52.37;95265.81;5115547;27;20412;-73
2022/05/08 02:46:19;;;;;;;5.55;2.40;;;;;;;7.81;52.66;95260.09;5132617;27;20039;-73
2022/05/08 02:48:45;;;;;;;5.47;2.00;;;;;;;7.72;51.75;95243.41;5115359;27;20061;-72
2022/05/08 02:51:10;;;;;;;4.25;2.10;;;;;;;7.79;51.98;95257.59;5115379;27;20038;-73
2022/05/08 02:53:35;;;;;;;4.95;2.22;;;;;;;7.83;51.48;95259.06;5115219;27;20019;-72
2022/05/08 02:58:45;;;;;;;3.28;2.17;;;;;;;7.77;52.63;95266.38;5118016;27;20512;-73
2022/05/08 03:01:11;;;;;;;3.35;1.90;;;;;;;7.76;52.84;95254.38;5115285;27;20045;-73
2022/05/08 03:03:36;;;;;;;3.13;2.22;;;;;;;7.69;52.34;95253.09;5115470;27;20027;-73
2022/05/08 03:06:02;;;;;;;3.97;2.00;;;;;;;7.63;52.75;95263.84;5098005;27;20035;-72
2022/05/08 03:08:27;;;;;;;3.10;2.25;;;;;;;7.50;53.61;95261.25;5115031;27;20107;-72
2022/05/08 03:13:40;;;;;;;3.38;2.30;;;;;;;7.47;54.09;95270.00;5133335;27;20038;-73
2022/05/08 03:16:07;;;;;;;4.30;2.20;;;;;;;7.39;52.87;95267.91;5132022;27;20084;-73
2022/05/08 03:18:33;;;;;;;3.53;2.20;;;;;;;7.31;54.21;95269.31;5114763;27;20027;-73
2022/05/08 03:20:58;;;;;;;4.50;2.20;;;;;;;7.33;55.65;95270.88;5114799;27;20054;-73
2022/05/08 03:23:24;;;;;;;4.93;2.28;;;;;;;7.23;55.84;95263.78;5114817;27;20473;-72
2022/05/08 03:25:50;;;;;;;4.63;2.50;;;;;;;7.25;56.58;95280.03;5131678;27;20035;-73
2022/05/08 03:28:18;;;;;;;3.08;2.10;;;;;;;7.22;56.89;95282.81;5131611;27;20489;-73
2022/05/08 03:30:44;;;;;;;3.10;2.15;;;;;;;7.11;58.17;95278.31;5115016;27;20100;-73
2022/05/08 03:33:09;;;;;;;3.85;2.33;;;;;;;7.05;55.23;95279.53;5131628;27;20477;-72
2022/05/08 03:35:36;;;;;;;4.13;2.35;;;;;;;7.10;53.97;95280.06;5132674;27;20051;-73
2022/05/08 03:38:01;;;;;;;3.72;2.10;;;;;;;7.12;52.81;95274.78;5114509;27;20114;-73
2022/05/08 03:40:27;;;;;;;6.45;2.25;;;;;;;7.12;52.75;95261.88;5131484;27;20035;-73
2022/05/08 03:42:53;;;;;;;3.22;2.10;;;;;;;7.26;52.32;95276.53;5114306;27;20026;-72
2022/05/08 03:45:19;;;;;;;3.05;2.00;;;;;;;7.30;52.79;95283.16;5131375;27;20054;-73
2022/05/08 03:47:44;;;;;;;5.63;2.25;;;;;;;7.31;52.35;95267.56;5130406;27;20060;-73
2022/05/08 03:50:10;;;;;;;6.82;2.47;;;;;;;7.43;51.90;95278.88;5131219;27;20110;-73
2022/05/08 03:52:35;;;;;;;7.30;2.30;;;;;;;7.48;51.91;95276.81;5114253;27;20485;-73
2022/05/08 03:55:04;;;;;;;4.75;2.33;;;;;;;7.44;52.33;95267.63;5131107;27;20088;-73
2022/05/08 03:57:30;;;;;;;5.03;2.80;;;;;;;7.48;52.28;95270.84;5131165;27;20077;-73
2022/05/08 03:59:55;;;;;;;4.28;2.22;;;;;;;7.68;51.62;95278.16;5131168;27;20027;-73
2022/05/08 04:02:20;;;;;;;2.88;1.90;;;;;;;7.74;52.08;95276.91;5131032;27;20034;-73
2022/05/08 04:04:46;;;;;;;3.63;2.20;;;;;;;7.80;51.92;95268.75;5131002;27;20031;-73
2022/05/08 04:07:13;;;;;;;4.75;2.05;;;;;;;8.11;51.42;95275.38;5132070;27;20035;-73
2022/05/08 04:09:38;;;;;;;3.78;2.20;;;;;;;8.32;51.11;95283.47;5131052;27;20019;-73
2022/05/08 04:12:04;;;;;;;3.83;2.30;;;;;;;8.61;50.43;95289.34;5132631;27;20078;-73
2022/05/08 04:14:30;;;;;;;5.72;2.40;;;;;;;8.99;49.17;95282.47;5113828;27;20122;-73
2022/05/08 04:16:55;;;;;;;4.60;2.03;;;;;;;9.43;47.55;95281.13;5131097;27;20027;-73
2022/05/08 04:19:20;;;;;;;4.22;2.45;;;;;;;9.66;47.25;95277.69;5113655;27;20466;-73
2022/05/08 04:21:46;;;;;;;3.30;2.25;;;;;;;9.97;47.14;95280.66;5113633;27;20098;-73
2022/05/08 04:24:17;;;;;;;3.85;2.10;;;;;;;10.69;45.44;95291.75;5096593;27;20027;-73
2022/05/08 04:26:43;;;;;;;4.72;2.45;;;;;;;11.11;44.69;95286.00;5130632;27;20045;-73
2022/05/08 04:29:08;;;;;;;6.40;2.17;;;;;;;11.40;42.43;95273.34;5113455;27;20483;-73
2022/05/08 04:31:34;;;;;;;6.05;2.42;;;;;;;12.11;41.84;95285.94;5132234;27;20023;-73
2022/05/08 04:34:00;;;;;;;8.20;2.78;;;;;;;12.60;41.64;95280.09;5130704;27;20027;-73
2022/05/08 04:36:26;;;;;;;5.13;2.72;;;;;;;13.13;41.62;95286.97;5131612;27;20061;-73
2022/05/08 04:38:51;;;;;;;5.78;2.65;;;;;;;13.65;38.87;95292.94;5113470;28;20023;-73
2022/05/08 04:41:18;;;;;;;4.45;2.50;;;;;;;14.27;38.13;95299.59;5131651;27;20091;-73
2022/05/08 04:43:43;;;;;;;4.85;2.53;;;;;;;14.64;37.05;95279.78;5130506;27;20023;-73
2022/05/08 04:46:10;;;;;;;4.40;2.47;;;;;;;15.26;35.86;95288.81;5130575;28;20420;-73
2022/05/08 04:48:36;;;;;;;4.65;2.50;;;;;;;15.56;35.58;95287.69;5130505;28;20038;-73
2022/05/08 04:51:01;;;;;;;6.72;2.75;;;;;;;15.88;34.45;95283.84;5130524;28;20036;-73
2022/05/08 04:53:27;;;;;;;4.68;2.58;;;;;;;15.94;33.48;95290.28;5131684;27;20098;-73
2022/05/08 04:55:52;;;;;;;3.80;2.42;;;;;;;16.05;33.56;95287.44;5113300;28;20039;-73
2022/05/08 04:58:18;;;;;;;5.57;2.55;;;;;;;15.54;34.46;95294.06;5130476;28;20046;-73
2022/05/08 05:00:43;;;;;;;5.47;2.35;;;;;;;15.22;35.98;95286.63;5135304;27;20091;-73
2022/05/08 05:03:09;;;;;;;3.30;2.45;;;;;;;15.04;35.22;95287.38;5117484;27;20023;-73
2022/05/08 05:05:34;;;;;;;3.33;2.30;;;;;;;14.80;35.29;95280.03;5134393;27;20107;-73
2022/05/08 05:07:59;;;;;;;5.35;2.22;;;;;;;14.77;35.85;95292.56;5117196;27;20026;-73
2022/05/08 05:10:25;;;;;;;10.75;2.58;;;;;;;14.40;36.48;95288.03;5134415;27;20039;-73
2022/05/08 05:12:52;;;;;;;5.07;2.70;;;;;;;14.20;37.30;95292.44;5100259;27;20034;-73
2022/05/08 05:15:18;;;;;;;3.33;2.20;;;;;;;14.32;36.73;95293.97;5117268;27;20475;-73
2022/05/08 05:17:43;;;;;;;4.72;2.42;;;;;;;14.06;36.98;95291.06;5135563;27;20037;-73
2022/05/08 05:20:09;;;;;;;4.97;2.58;;;;;;;14.00;37.96;95302.88;5135429;27;20046;-73
2022/05/08 05:22:35;;;;;;;5.60;3.20;;;;;;;13.78;38.03;95288.28;5135435;27;20094;-73
2022/05/08 05:25:02;;;;;;;4.60;2.90;;;;;;;13.81;38.73;95295.81;5135365;27;20054;-73
2022/05/08 05:27:28;;;;;;;3.28;2.75;;;;;;;13.70;38.38;95297.75;5134032;27;20023;-73
2022/05/08 05:29:53;;;;;;;7.47;3.22;;;;;;;13.57;38.42;95298.00;5116836;27;20050;-73
2022/05/08 05:32:19;;;;;;;6.60;2.80;;;;;;;13.20;40.20;95293.28;5133986;27;20472;-73
2022/05/08 05:34:44;;;;;;;5.97;2.80;;;;;;;13.10;38.97;95292.44;5135158;27;20019;-73
2022/05/08 05:37:10;;;;;;;4.75;2.85;;;;;;;13.12;40.38;95300.94;5135243;27;20057;-73
2022/05/08 05:39:35;;;;;;;5.78;2.80;;;;;;;13.00;40.16;95299.38;5099832;27;20030;-73
2022/05/08 05:42:00;;;;;;;6.10;3.17;;;;;;;13.01;41.48;95299.28;5099750;27;20477;-73
2022/05/08 05:44:26;;;;;;;11.88;3.08;;;;;;;13.09;41.74;95303.81;5133849;27;20019;-73
2022/05/08 05:49:38;;;;;;;8.30;2.78;;;;;;;13.30;41.64;95302.03;5134982;27;20026;-73
2022/05/08 05:52:05;;;;;;;6.03;2.60;;;;;;;13.43;41.28;95306.16;5133809;27;20219;-73
2022/05/08 05:54:31;;;;;;;3.85;2.50;;;;;;;13.49;41.54;95296.06;5100017;27;20028;-73
2022/05/08 05:56:56;;;;;;;5.57;2.65;;;;;;;13.71;40.09;95297.63;5116485;27;20126;-73
2022/05/08 05:59:22;;;;;;;4.10;2.67;;;;;;;13.67;39.63;95298.81;5116453;27;20438;-73
2022/05/08 06:01:48;;;;;;;3.85;2.53;;;;;;;13.57;39.67;95300.63;5135082;27;20080;-73
2022/05/08 06:04:13;;;;;;;4.72;2.50;;;;;;;13.59;41.01;95296.06;5133388;27;20435;-73
2022/05/08 06:06:39;;;;;;;5.00;2.83;;;;;;;13.66;41.69;95293.75;5133461;27;20031;-73
2022/05/08 06:09:04;;;;;;;5.38;2.90;;;;;;;13.67;40.15;95287.56;5134492;27;20023;-73
2022/05/08 06:11:30;;;;;;;5.07;2.80;;;;;;;13.82;38.80;95294.88;5115302;27;20031;-73
2022/05/08 06:13:56;;;;;;;6.00;2.97;;;;;;;13.81;38.26;95290.59;5133292;27;20027;-74
2022/05/08 06:16:22;;;;;;;5.07;2.95;;;;;;;13.84;38.39;95277.28;5116177;27;20046;-73
2022/05/08 06:18:47;;;;;;;5.70;3.25;;;;;;;13.90;37.88;95282.91;5133210;27;20084;-73
2022/05/08 06:21:12;;;;;;;4.47;2.78;;;;;;;14.07;36.92;95287.50;5133093;27;20035;-73
2022/05/08 06:23:38;;;;;;;7.35;2.78;;;;;;;13.92;37.29;95284.44;5132936;27;20028;-73
2022/05/08 06:26:03;;;;;;;7.15;4.68;;;;;;;13.89;36.86;95281.28;5132941;27;20080;-73
2022/05/08 06:28:30;;;;;;;7.22;4.78;;;;;;;13.95;36.08;95278.13;5132986;27;20054;-73
2022/05/08 06:30:55;;;;;;;6.50;4.18;;;;;;;13.96;37.24;95275.38;5132963;27;20063;-73
2022/05/08 06:33:21;;;;;;;6.10;3.35;;;;;;;14.17;36.14;95275.25;5132845;27;20066;-73
2022/05/08 06:35:46;;;;;;;6.32;4.05;;;;;;;14.27;35.44;95278.69;5115562;27;20055;-73
2022/05/08 06:38:12;;;;;;;6.68;3.28;;;;;;;14.34;34.92;95273.72;5115728;27;20027;-73
2022/05/08 06:40:38;;;;;;;6.25;3.60;;;;;;;14.42;35.78;95279.06;5132740;27;20046;-73
2022/05/08 06:43:04;;;;;;;6.82;2.50;;;;;;;14.56;34.91;95267.41;5098554;27;20106;-74
2022/05/08 06:45:29;;;;;;;4.82;2.30;;;;;;;14.62;35.09;95274.66;5133918;27;20123;-73
2022/05/08 06:47:55;;;;;;;4.85;2.45;;;;;;;14.62;35.45;95274.66;5132526;27;20101;-73
2022/05/08 06:50:20;;;;;;;7.32;2.25;;;;;;;14.60;35.28;95273.16;5132581;27;20036;-73
2022/05/08 06:52:46;;;;;;;3.38;2.10;;;;;;;14.57;36.72;95269.06;5132518;27;20055;-73
2022/05/08 06:55:12;;;;;;;3.33;2.20;;;;;;;14.70;36.10;95268.75;5132264;27;20035;-73
2022/05/08 06:57:37;;;;;;;4.43;2.10;;;;;;;14.79;35.96;95270.50;5115256;27;20111;-73
2022/05/08 07:02:48;;;;;;;9.52;2.20;;;;;;;14.73;34.77;95263.22;5132785;27;20034;-73
2022/05/08 07:05:13;;;;;;;5.53;1.98;;;;;;;14.82;36.21;95266.78;5132060;27;20023;-74
2022/05/08 07:07:38;;;;;;;4.50;2.10;;;;;;;14.97;36.32;95266.19;5133441;27;20027;-73
2022/05/08 07:10:04;;;;;;;4.25;2.08;;;;;;;15.08;36.13;95265.19;5133376;27;20552;-73
2022/05/08 07:12:30;;;;;;;2.80;2.28;;;;;;;15.12;36.30;95261.31;5133381;27;20027;-74
2022/05/08 07:14:55;;;;;;;3.63;2.17;;;;;;;15.20;36.11;95265.84;5132007;27;20023;-73
2022/05/08 07:17:21;;;;;;;4.80;2.30;;;;;;;15.33;36.11;95248.00;5132007;27;20084;-73
2022/05/08 07:19:48;;;;;;;5.57;2.30;;;;;;;15.66;35.47;95261.47;5114907;27;20027;-73
2022/05/08 07:22:15;;;;;;;5.50;2.20;;;;;;;15.75;35.20;95260.63;5131792;27;20042;-74
2022/05/08 07:24:41;;;;;;;5.57;2.50;;;;;;;15.91;35.50;95259.97;5114901;27;20492;-74
2022/05/08 07:27:10;;;;;;;4.68;2.38;;;;;;;16.12;35.28;95266.69;5131552;27;20038;-73
2022/05/08 07:29:36;;;;;;;6.63;2.40;;;;;;;16.20;34.63;95256.28;5115282;27;20031;-74
2022/05/08 07:32:02;;;;;;;4.47;2.17;;;;;;;16.28;34.95;95261.59;5131855;27;20038;-74
2022/05/08 07:37:11;;;;;;;5.45;2.30;;;;;;;16.52;34.22;95243.44;5132819;27;20077;-74
2022/05/08 07:39:37;;;;;;;5.20;2.47;;;;;;;16.58;34.05;95241.19;5131508;27;20505;-74
2022/05/08 07:42:02;;;;;;;6.18;2.38;;;;;;;16.67;34.58;95245.50;5131260;27;20507;-73
2022/05/08 07:44:28;;;;;;;3.45;2.22;;;;;;;16.70;34.94;95245.19;5097394;27;20031;-74
2022/05/08 07:46:53;;;;;;;5.30;2.15;;;;;;;16.69;34.52;95244.38;5132950;27;20045;-74
2022/05/08 07:49:19;;;;;;;4.15;2.13;;;;;;;16.83;35.72;95248.28;5131453;27;20023;-74
2022/05/08 07:51:44;;;;;;;3.25;2.33;;;;;;;16.94;35.88;95242.75;5133037;27;20031;-74
2022/05/08 07:54:09;;;;;;;2.90;2.20;;;;;;;17.03;34.94;95242.81;5131323;27;20400;-74
2022/05/08 07:56:35;;;;;;;4.40;2.50;;;;;;;17.15;34.88;95247.59;5131343;27;20064;-74
2022/05/08 07:59:00;;;;;;;5.38;2.30;;;;;;;17.20;35.34;95232.22;5131106;27;20042;-73
2022/05/08 08:01:26;;;;;;;3.97;2.10;;;;;;;17.31;34.41;95227.66;5131217;27;20047;-74
2022/05/08 08:03:51;;;;;;;4.43;2.47;;;;;;;17.13;34.60;95230.38;5114015;27;20023;-74
2022/05/08 08:06:17;;;;;;;3.67;2.28;;;;;;;17.34;35.01;95232.59;5131211;27;20088;-74
2022/05/08 08:08:42;;;;;;;5.75;2.25;;;;;;;17.45;34.41;95234.94;5113856;27;20027;-73
2022/05/08 08:11:08;;;;;;;4.03;2.10;;;;;;;17.46;34.47;95228.69;5113826;27;20062;-74
2022/05/08 08:13:34;;;;;;;5.68;2.40;;;;;;;17.37;34.29;95233.09;5113877;27;20061;-74
2022/05/08 08:16:00;;;;;;;3.97;2.30;;;;;;;17.44;35.84;95222.81;5130969;27;20023;-74
2022/05/08 08:18:25;;;;;;;6.30;2.45;;;;;;;17.53;34.18;95213.13;5113743;27;20038;-74
2022/05/08 08:20:50;;;;;;;4.35;2.25;;;;;;;17.67;33.94;95228.28;5113706;27;20088;-74
2022/05/08 08:23:16;;;;;;;3.03;2.28;;;;;;;17.80;34.25;95220.78;5132055;27;20072;-74
2022/05/08 08:25:42;;;;;;;3.00;2.30;;;;;;;17.86;33.92;95201.75;5132140;27;20027;-74
2022/05/08 08:28:08;;;;;;;4.55;2.17;;;;;;;18.01;35.03;95227.38;5130993;27;20035;-73
2022/05/08 08:30:33;;;;;;;4.15;2.30;;;;;;;18.05;33.87;95220.78;5132015;27;20450;-73
2022/05/08 08:32:59;;;;;;;4.88;2.70;;;;;;;18.04;33.36;95209.47;5130664;27;20035;-73
2022/05/08 08:35:25;;;;;;;3.22;2.40;;;;;;;18.16;32.74;95214.41;5131296;27;20035;-73
2022/05/08 08:37:50;;;;;;;4.07;2.25;;;;;;;18.13;33.23;95202.41;5113553;27;20485;-73
2022/05/08 08:40:15;;;;;;;3.90;2.33;;;;;;;18.15;34.25;95208.31;5113575;27;20435;-73
2022/05/08 08:42:41;;;;;;;3.47;2.10;;;;;;;18.28;32.58;95206.03;5130965;28;20039;-73
2022/05/08 08:47:52;;;;;;;4.68;2.50;;;;;;;18.08;32.56;95205.53;5130931;28;20041;-73
2022/05/08 08:50:18;;;;;;;4.93;2.60;;;;;;;18.15;33.33;95205.69;5113343;28;20031;-73
2022/05/08 08:52:47;;;;;;;4.75;2.30;;;;;;;18.26;33.33;95202.75;5130807;28;20019;-73
2022/05/08 08:55:13;;;;;;;2.95;2.30;;;;;;;18.35;33.38;95200.94;5131638;27;20102;-73
2022/05/08 08:57:39;;;;;;;5.13;2.80;;;;;;;18.49;33.91;95202.06;5130494;28;20054;-73
2022/05/08 09:00:07;;;;;;;5.57;2.38;;;;;;;18.64;33.44;95197.78;5096351;28;20296;-73
2022/05/08 09:02:34;;;;;;;4.60;2.38;;;;;;;18.94;30.18;95201.53;5130348;27;20037;-73
2022/05/08 09:05:10;;;;;;;3.38;2.30;;;;;;;18.83;31.37;95190.50;5113356;28;20020;-73
2022/05/08 09:07:42;;;;;;;5.47;2.13;;;;;;;18.86;31.12;95191.03;5098434;28;20031;-73
2022/05/08 09:10:20;;;;;;;5.10;2.17;;;;;;;19.06;30.90;95188.81;5113027;28;20035;-73
2022/05/08 09:12:52;;;;;;;5.18;2.33;;;;;;;19.06;32.01;95188.00;5113216;28;20060;-73
2022/05/08 09:15:24;;;;;;;5.75;2.47;;;;;;;19.13;30.55;95178.41;5131478;27;20035;-73
2022/05/08 09:17:51;;;;;;;5.38;2.53;;;;;;;19.21;30.14;95178.38;5096374;28;20498;-73
2022/05/08 09:20:43;;;;;;;4.45;2.30;;;;;;;19.33;29.71;95181.44;5130188;28;20118;-73
2022/05/08 09:23:18;;;;;;;5.70;2.83;;;;;;;19.30;30.64;95179.16;5130203;28;20019;-73
2022/05/08 09:25:52;;;;;;;5.43;2.10;;;;;;;19.39;30.19;95178.16;5131560;27;20480;-73
2022/05/08 09:28:19;;;;;;;10.02;2.63;;;;;;;19.52;30.14;95180.22;5129958;28;20484;-73
2022/05/08 09:31:07;;;;;;;3.35;2.33;;;;;;;19.73;27.90;95180.44;5130173;28;20484;-73
2022/05/08 09:33:38;;;;;;;3.03;2.17;;;;;;;19.65;28.12;95177.84;5130072;28;20137;-73
2022/05/08 09:36:05;;;;;;;3.47;2.20;;;;;;;19.53;27.80;95169.50;5129844;27;20059;-73
2022/05/08 09:38:58;;;;;;;4.45;2.20;;;;;;;19.50;28.98;95175.13;5130055;27;20035;-73
2022/05/08 09:41:26;;;;;;;3.40;2.10;;;;;;;19.73;26.98;95175.19;5131600;27;20031;-73
2022/05/08 09:43:53;;;;;;;3.35;2.08;;;;;;;19.66;28.84;95173.41;5113155;28;20031;-74
2022/05/08 09:46:23;;;;;;;3.65;2.22;;;;;;;19.68;27.56;95166.97;5114050;27;20031;-73
2022/05/08 09:48:49;;;;;;;5.10;2.20;;;;;;;19.80;27.32;95164.75;5133808;27;20118;-74
2022/05/08 09:51:17;;;;;;;3.17;2.05;;;;;;;19.95;26.03;95160.38;5099580;27;20039;-73
2022/05/08 09:53:44;;;;;;;7.65;2.30;;;;;;;19.96;27.33;95159.34;5133716;27;20110;-73
2022/05/08 09:56:11;;;;;;;3.35;1.95;;;;;;;20.09;26.62;95153.50;5133608;27;20035;-74
2022/05/08 09:58:39;;;;;;;2.95;2.00;;;;;;;20.21;25.87;95157.34;5099433;27;20476;-73
2022/05/08 10:01:05;;;;;;;4.28;2.17;;;;;;;20.36;26.68;95144.19;5134936;27;20105;-73
2022/05/08 10:03:31;;;;;;;5.78;2.00;;;;;;;20.45;25.30;95143.13;5135004;27;20382;-73
2022/05/08 10:05:59;;;;;;;3.58;2.08;;;;;;;20.47;25.35;95149.00;5134816;27;20110;-73
2022/05/08 10:08:38;;;;;;;3.92;2.00;;;;;;;20.52;26.30;95146.66;5134514;27;20020;-73
2022/05/08 10:14:04;;;;;;;3.13;1.92;;;;;;;20.59;26.81;95143.31;5119400;27;20131;-73
2022/05/08 10:16:48;;;;;;;4.85;1.90;;;;;;;20.67;26.26;95135.31;5117998;27;20035;-73
2022/05/08 10:19:21;;;;;;;3.38;2.00;;;;;;;20.68;26.40;95136.97;5133148;27;20111;-77
2022/05/08 10:22:13;;;;;;;3.63;1.90;;;;;;;20.73;25.50;95138.06;5134781;27;20102;-78
2022/05/08 10:24:56;;;;;;;3.83;2.08;;;;;;;20.79;26.88;95123.34;5135492;27;20035;-78
2022/05/08 10:27:31;;;;;;;3.78;2.05;;;;;;;20.81;26.45;95116.06;5132971;27;20122;-72
2022/05/08 10:29:56;;;;;;;4.25;1.95;;;;;;;20.89;25.52;95125.69;5134403;27;20054;-73
2022/05/08 10:32:31;;;;;;;4.13;1.92;;;;;;;20.82;27.05;95116.88;5134055;27;20055;-72
2022/05/08 10:35:21;;;;;;;5.15;2.15;;;;;;;20.85;27.16;95114.69;5134079;27;20034;-75
2022/05/08 10:37:53;;;;;;;3.60;2.20;;;;;;;21.10;24.83;95103.81;5133006;27;20321;-69
2022/05/08 10:40:22;;;;;;;2.60;1.90;;;;;;;21.06;26.62;95107.81;5133996;27;20027;-68
2022/05/08 10:42:58;;;;;;;3.90;1.88;;;;;;;21.06;26.84;95092.81;5133973;27;20030;-66
2022/05/08 10:45:30;;;;;;;5.90;1.98;;;;;;;21.14;27.52;95102.44;5132576;27;20055;-66
2022/05/08 10:47:59;;;;;;;3.33;1.85;;;;;;;21.14;27.34;95094.50;5133796;27;20118;-66
2022/05/08 10:50:24;;;;;;;3.70;2.20;;;;;;;21.25;25.83;95101.13;5132547;27;20460;-66
2022/05/08 10:52:50;;;;;;;5.15;2.33;;;;;;;21.11;26.12;95079.03;5133760;27;20023;-66
2022/05/08 10:55:16;;;;;;;5.85;2.22;;;;;;;21.22;26.43;95091.75;5115551;27;20072;-66
2022/05/08 10:57:43;;;;;;;5.70;2.00;;;;;;;21.28;25.67;95091.00;5133299;27;20035;-67
2022/05/08 11:00:16;;;;;;;6.93;2.00;;;;;;;21.39;24.86;95090.56;5133541;27;20110;-66
2022/05/08 11:02:44;;;;;;;3.65;1.90;;;;;;;21.35;24.81;95086.63;5115701;27;20031;-66
2022/05/08 11:05:11;;;;;;;4.65;2.20;;;;;;;21.19;25.90;95077.09;5133423;27;20051;-66
2022/05/08 11:07:40;;;;;;;3.95;2.10;;;;;;;21.14;25.40;95074.19;5132211;27;20027;-66
2022/05/08 11:10:16;;;;;;;4.55;2.38;;;;;;;21.31;26.58;95079.25;5132297;27;20031;-66
2022/05/08 11:13:02;;;;;;;6.65;2.00;;;;;;;21.36;25.37;95069.75;5132183;27;20027;-66
2022/05/08 11:15:28;;;;;;;2.95;2.10;;;;;;;21.44;24.57;95062.75;5133098;27;20043;-67
2022/05/08 11:18:22;;;;;;;3.63;1.85;;;;;;;21.39;24.10;95069.41;5132079;27;20050;-67
2022/05/08 11:20:57;;;;;;;4.00;2.20;;;;;;;21.26;25.09;95044.69;5117478;27;20088;-67
2022/05/08 11:23:24;;;;;;;4.28;1.90;;;;;;;21.30;24.54;95059.94;5132009;27;20038;-67
2022/05/08 11:25:50;;;;;;;5.07;2.00;;;;;;;21.38;23.59;95059.84;5131878;27;20031;-67
2022/05/08 11:28:17;;;;;;;2.80;1.55;;;;;;;21.53;21.58;95061.63;5132989;27;20056;-67
2022/05/08 11:30:43;;;;;;;5.63;1.70;;;;;;;21.38;22.27;95054.56;5131829;27;20150;-67
2022/05/08 11:36:11;;;;;;;3.13;2.10;;;;;;;21.46;23.68;95044.91;5132754;27;20054;-67
2022/05/08 11:38:53;;;;;;;3.83;1.75;;;;;;;21.60;21.85;95051.94;5116392;27;20047;-67
2022/05/08 11:41:20;;;;;;;2.78;1.50;;;;;;;21.56;20.89;95056.81;5115927;27;20038;-67
2022/05/08 11:43:52;;;;;;;4.63;1.50;;;;;;;21.55;20.00;95044.56;5114463;27;20481;-67
2022/05/08 11:46:38;;;;;;;3.95;1.38;;;;;;;21.33;20.03;95035.78;5133021;27;20031;-67
2022/05/08 11:49:20;;;;;;;1.98;1.30;;;;;;;21.39;19.82;95043.00;5130819;27;20042;-67
2022/05/08 11:51:49;;;;;;;3.10;1.50;;;;;;;21.44;18.79;95047.72;5115393;27;20035;-67
2022/05/08 11:54:18;;;;;;;2.00;1.50;;;;;;;21.47;19.19;95046.53;5132432;27;20065;-67
2022/05/08 11:56:44;;;;;;;1.95;1.27;;;;;;;21.34;19.73;95034.81;5131423;27;20066;-67
2022/05/08 11:59:17;;;;;;;2.25;1.13;;;;;;;21.32;19.16;95044.72;5114122;27;20505;-69
2022/05/08 12:01:53;;;;;;;4.07;1.30;;;;;;;21.41;19.95;95035.69;5132766;27;20041;-67